Time;durP1;ratioP1;P1;durP2;ratioP2;P2;SDS_P1;SDS_P2;PMS_P1;PMS_P2;Temp;Humidity;BMP_temperature;BMP_pressure;BME280_temperature;BME280_humidity;BME280_pressure;Samples;Min_cycle;Max_cycle;Signal;HPM_P1;HPM_P2
2023/11/18 00:00:13;;;;;;;29.70;16.40;;;4.00;99.90;;;;;;5101416;28;20463;-77
2023/11/18 00:02:45;;;;;;;32.70;15.57;;;3.90;99.90;;;;;;5114211;28;20451;-78
2023/11/18 00:05:13;;;;;;;25.50;14.00;;;3.90;99.90;;;;;;5115435;28;20497;-79
2023/11/18 00:07:40;;;;;;;27.50;13.57;;;3.90;99.90;;;;;;5108056;28;20653;-78
2023/11/18 00:10:08;;;;;;;26.50;13.53;;;3.90;99.90;;;;;;5110215;28;20453;-79
2023/11/18 00:12:35;;;;;;;26.83;14.10;;;3.90;99.90;;;;;;5091233;28;20817;-79
2023/11/18 00:15:03;;;;;;;27.50;14.80;;;3.80;99.90;;;;;;5110399;28;20452;-77
2023/11/18 00:17:30;;;;;;;28.70;13.60;;;3.80;99.90;;;;;;5113591;28;20812;-78
2023/11/18 00:19:58;;;;;;;25.90;11.70;;;3.80;99.90;;;;;;5115146;28;20965;-77
2023/11/18 00:22:27;;;;;;;29.67;13.57;;;3.80;99.90;;;;;;5100423;28;20453;-78
2023/11/18 00:24:55;;;;;;;23.33;13.70;;;3.80;99.90;;;;;;5087522;28;20479;-79
2023/11/18 00:27:24;;;;;;;31.67;15.73;;;3.70;99.90;;;;;;5112101;28;20899;-79
2023/11/18 00:29:52;;;;;;;24.73;14.57;;;3.70;99.90;;;;;;5102569;28;20935;-79
2023/11/18 00:32:19;;;;;;;20.47;12.43;;;3.70;99.90;;;;;;5085111;28;20487;-79
2023/11/18 00:34:46;;;;;;;21.60;13.13;;;3.70;99.90;;;;;;5098957;28;20897;-79
2023/11/18 00:37:14;;;;;;;24.47;12.67;;;3.70;99.90;;;;;;5093806;28;20489;-78
2023/11/18 00:39:41;;;;;;;26.50;11.97;;;3.60;99.90;;;;;;5112180;28;20485;-79
2023/11/18 00:42:08;;;;;;;26.00;13.33;;;3.60;99.90;;;;;;5107887;28;20978;-79
2023/11/18 00:44:35;;;;;;;21.50;13.57;;;3.60;99.90;;;;;;5115454;28;20583;-77
2023/11/18 00:47:02;;;;;;;23.20;12.20;;;3.60;99.90;;;;;;5117057;28;20523;-79
2023/11/18 00:49:29;;;;;;;21.03;11.83;;;3.60;99.90;;;;;;5111054;28;20521;-79
2023/11/18 00:51:56;;;;;;;19.80;12.27;;;3.60;99.90;;;;;;5112662;27;20453;-79
2023/11/18 00:54:25;;;;;;;23.17;13.20;;;3.60;99.90;;;;;;5111483;28;20453;-80
2023/11/18 00:56:51;;;;;;;20.13;10.63;;;3.60;99.90;;;;;;5108752;28;20503;-79
2023/11/18 00:59:18;;;;;;;28.23;14.50;;;3.60;99.90;;;;;;5115116;28;20464;-80
2023/11/18 01:01:45;;;;;;;23.60;13.70;;;3.60;99.90;;;;;;5111026;28;20456;-78
2023/11/18 01:04:12;;;;;;;26.60;13.27;;;3.60;99.90;;;;;;5115998;28;20488;-79
2023/11/18 01:06:39;;;;;;;18.73;10.83;;;3.60;99.90;;;;;;5110951;28;20543;-77
2023/11/18 01:09:09;;;;;;;20.60;11.83;;;3.60;99.90;;;;;;5111550;28;20455;-79
2023/11/18 01:11:37;;;;;;;22.60;13.33;;;3.60;99.90;;;;;;5098768;28;20458;-80
2023/11/18 01:14:04;;;;;;;26.90;11.20;;;3.60;99.90;;;;;;5115876;28;20533;-79
2023/11/18 01:16:31;;;;;;;23.83;12.93;;;3.60;99.90;;;;;;5095046;28;20562;-80
2023/11/18 01:18:58;;;;;;;27.30;13.17;;;3.70;99.90;;;;;;5115533;28;20531;-78
2023/11/18 01:21:25;;;;;;;19.30;12.87;;;3.70;99.90;;;;;;5110673;28;20469;-78
2023/11/18 01:23:51;;;;;;;19.93;11.53;;;3.70;99.90;;;;;;5103405;28;20948;-78
2023/11/18 01:26:18;;;;;;;23.17;12.23;;;3.80;99.90;;;;;;5106120;28;20476;-79
2023/11/18 01:28:46;;;;;;;22.67;12.70;;;3.80;99.90;;;;;;5113902;28;20448;-78
2023/11/18 01:31:13;;;;;;;18.60;11.63;;;3.80;99.90;;;;;;5114312;28;20799;-78
2023/11/18 01:33:41;;;;;;;25.57;11.80;;;3.90;99.90;;;;;;5114324;28;20460;-76
2023/11/18 01:36:09;;;;;;;18.37;11.77;;;4.00;99.90;;;;;;5085689;28;20581;-77
2023/11/18 01:38:37;;;;;;;22.53;12.33;;;4.00;99.90;;;;;;5090040;28;20739;-78
2023/11/18 01:41:04;;;;;;;22.30;11.30;;;4.00;99.90;;;;;;5090680;28;20846;-78
2023/11/18 01:43:34;;;;;;;16.97;10.70;;;4.00;99.90;;;;;;5090698;28;20464;-79
2023/11/18 01:46:07;;;;;;;22.50;11.80;;;4.00;99.90;;;;;;5094332;28;20464;-78
2023/11/18 01:48:34;;;;;;;24.60;14.60;;;4.00;99.90;;;;;;5094322;28;21020;-79
2023/11/18 01:51:05;;;;;;;18.60;11.13;;;4.00;99.90;;;;;;5092230;28;20461;-79
2023/11/18 01:53:33;;;;;;;24.70;10.17;;;3.90;99.90;;;;;;5092242;28;20452;-78
2023/11/18 01:56:00;;;;;;;14.97;10.07;;;3.90;99.90;;;;;;5099600;28;20461;-79
2023/11/18 01:58:27;;;;;;;20.93;12.10;;;3.90;99.90;;;;;;5096961;28;20457;-77
2023/11/18 02:00:54;;;;;;;18.67;10.10;;;3.90;99.90;;;;;;5103098;28;20450;-78
2023/11/18 02:03:22;;;;;;;17.73;9.83;;;3.80;99.90;;;;;;5092715;28;20455;-79
2023/11/18 02:05:49;;;;;;;17.80;9.33;;;3.80;99.90;;;;;;5091853;28;20489;-78
2023/11/18 02:08:18;;;;;;;15.87;10.00;;;3.80;99.90;;;;;;5097873;28;20458;-79
2023/11/18 02:10:50;;;;;;;19.10;11.90;;;3.70;99.90;;;;;;5098646;28;20453;-77
2023/11/18 02:13:25;;;;;;;17.80;8.70;;;3.70;99.90;;;;;;5091637;28;20950;-79
2023/11/18 02:15:54;;;;;;;17.30;11.77;;;3.70;99.90;;;;;;5093218;28;20550;-79
2023/11/18 02:18:25;;;;;;;22.80;11.50;;;3.70;99.90;;;;;;5096963;28;20675;-78
2023/11/18 02:20:53;;;;;;;17.10;11.00;;;3.60;99.90;;;;;;5088840;28;20455;-79
2023/11/18 02:23:21;;;;;;;17.17;9.43;;;3.60;99.90;;;;;;5095523;28;20448;-78
2023/11/18 02:25:50;;;;;;;18.10;9.33;;;3.60;99.90;;;;;;5096323;28;20871;-78
2023/11/18 02:28:18;;;;;;;20.47;10.90;;;3.60;99.90;;;;;;5103790;28;20529;-79
2023/11/18 02:30:45;;;;;;;16.90;11.60;;;3.60;99.90;;;;;;5098990;28;20485;-77
2023/11/18 02:33:18;;;;;;;19.27;10.13;;;3.60;99.90;;;;;;5097575;28;20835;-80
2023/11/18 02:35:52;;;;;;;15.73;9.33;;;3.70;99.90;;;;;;5100299;28;20492;-79
2023/11/18 02:38:24;;;;;;;15.23;10.07;;;3.70;99.90;;;;;;5084176;28;20451;-78
2023/11/18 02:40:57;;;;;;;17.27;10.17;;;3.70;99.90;;;;;;5084747;28;20677;-79
2023/11/18 02:43:25;;;;;;;15.53;9.70;;;3.80;99.90;;;;;;5093608;28;20469;-78
2023/11/18 02:45:54;;;;;;;15.20;9.00;;;3.80;99.90;;;;;;5095687;28;20486;-79
2023/11/18 02:48:21;;;;;;;18.90;10.17;;;3.90;99.90;;;;;;5095656;28;20448;-77
2023/11/18 02:50:48;;;;;;;18.33;9.40;;;3.90;99.90;;;;;;5088353;28;20448;-78
2023/11/18 02:53:15;;;;;;;20.43;10.93;;;3.90;99.90;;;;;;5094173;28;20443;-76
2023/11/18 02:55:42;;;;;;;20.10;11.07;;;4.00;99.90;;;;;;5088983;28;20544;-78
2023/11/18 02:58:10;;;;;;;18.13;9.47;;;4.00;99.90;;;;;;5088974;28;20450;-78
2023/11/18 03:00:38;;;;;;;15.93;9.97;;;4.00;99.90;;;;;;5098919;28;20973;-78
2023/11/18 03:03:05;;;;;;;18.37;10.00;;;4.00;99.90;;;;;;5101061;28;20458;-79
2023/11/18 03:05:32;;;;;;;14.70;8.47;;;4.10;99.90;;;;;;5089225;28;20545;-76
2023/11/18 03:07:59;;;;;;;17.97;10.13;;;4.10;99.90;;;;;;5084859;28;20928;-77
2023/11/18 03:10:26;;;;;;;14.93;9.47;;;4.20;99.90;;;;;;5097564;28;20463;-78
2023/11/18 03:12:54;;;;;;;15.00;9.50;;;4.20;99.90;;;;;;5089652;28;20927;-78
2023/11/18 03:15:23;;;;;;;18.50;9.47;;;4.20;99.90;;;;;;5096968;28;20477;-79
2023/11/18 03:17:51;;;;;;;16.47;10.17;;;4.30;99.90;;;;;;5084311;28;20536;-78
2023/11/18 03:20:18;;;;;;;16.33;10.53;;;4.30;99.90;;;;;;5096391;28;20464;-78
2023/11/18 03:22:45;;;;;;;20.83;9.70;;;4.30;99.90;;;;;;5100293;28;20486;-77
2023/11/18 03:25:13;;;;;;;16.10;11.13;;;4.30;99.90;;;;;;5097424;28;20494;-77
2023/11/18 03:27:40;;;;;;;14.40;8.90;;;4.30;99.90;;;;;;5098799;28;20464;-78
2023/11/18 03:30:08;;;;;;;19.20;9.40;;;4.40;99.90;;;;;;5098328;28;20443;-80
2023/11/18 03:32:37;;;;;;;19.93;9.93;;;4.40;99.90;;;;;;5087961;28;20506;-77
2023/11/18 03:35:04;;;;;;;14.63;9.50;;;4.40;99.90;;;;;;5084510;28;21152;-78
2023/11/18 03:37:31;;;;;;;14.90;9.87;;;4.40;99.90;;;;;;5094552;28;20464;-78
2023/11/18 03:39:58;;;;;;;18.10;9.93;;;4.40;99.90;;;;;;5102461;28;20445;-79
2023/11/18 03:42:24;;;;;;;14.53;9.17;;;4.40;99.90;;;;;;5100618;28;20454;-78
2023/11/18 03:44:51;;;;;;;13.43;9.17;;;4.50;99.90;;;;;;5094084;28;20489;-80
2023/11/18 03:47:18;;;;;;;14.00;9.50;;;4.50;99.90;;;;;;5102640;28;20495;-78
2023/11/18 03:49:46;;;;;;;17.10;10.33;;;4.50;99.90;;;;;;5089281;28;20459;-78
2023/11/18 03:52:13;;;;;;;16.33;9.50;;;4.50;99.90;;;;;;5094529;28;20847;-78
2023/11/18 03:54:40;;;;;;;16.07;9.10;;;4.50;99.90;;;;;;5105262;28;20449;-79
2023/11/18 03:57:06;;;;;;;16.27;9.83;;;4.50;99.90;;;;;;5096984;28;21004;-79
2023/11/18 03:59:33;;;;;;;19.00;10.23;;;4.50;99.90;;;;;;5102188;28;20980;-77
2023/11/18 04:02:00;;;;;;;16.90;9.57;;;4.50;99.90;;;;;;5102399;28;20940;-80
2023/11/18 04:04:27;;;;;;;14.90;8.80;;;4.50;99.90;;;;;;5095355;28;20449;-78
2023/11/18 04:06:57;;;;;;;13.73;8.83;;;4.50;99.90;;;;;;5091122;28;20844;-77
2023/11/18 04:09:23;;;;;;;17.63;8.73;;;4.50;99.90;;;;;;5095987;28;20810;-78
2023/11/18 04:11:51;;;;;;;15.77;8.70;;;4.50;99.90;;;;;;5102465;28;20462;-79
2023/11/18 04:14:17;;;;;;;15.83;9.13;;;4.50;99.90;;;;;;5096136;28;20809;-79
2023/11/18 04:16:46;;;;;;;15.63;9.83;;;4.50;99.90;;;;;;5096069;28;20990;-78
2023/11/18 04:19:13;;;;;;;13.87;9.20;;;4.50;99.90;;;;;;5095284;28;20450;-79
2023/11/18 04:21:40;;;;;;;16.40;9.33;;;4.50;99.90;;;;;;5110615;28;20463;-78
2023/11/18 04:24:09;;;;;;;15.50;9.93;;;4.60;99.90;;;;;;5095898;28;20967;-78
2023/11/18 04:26:36;;;;;;;15.07;10.40;;;4.60;99.90;;;;;;5095721;28;21030;-78
2023/11/18 04:29:04;;;;;;;20.27;10.20;;;4.60;99.90;;;;;;5095354;28;20460;-78
2023/11/18 04:31:31;;;;;;;14.43;9.13;;;4.60;99.90;;;;;;5094672;28;20446;-78
2023/11/18 04:33:57;;;;;;;14.53;9.27;;;4.60;99.90;;;;;;5093528;28;20452;-79
2023/11/18 04:36:26;;;;;;;13.40;9.23;;;4.50;99.90;;;;;;5089605;28;20473;-77
2023/11/18 04:38:53;;;;;;;15.57;9.77;;;4.50;99.90;;;;;;5094391;28;20887;-78
2023/11/18 04:41:22;;;;;;;14.77;9.73;;;4.40;99.90;;;;;;5094698;28;20463;-78
2023/11/18 04:43:50;;;;;;;14.50;9.27;;;4.40;99.90;;;;;;5115015;28;20461;-77
2023/11/18 04:46:16;;;;;;;15.53;9.30;;;4.40;99.90;;;;;;5114811;28;20849;-79
2023/11/18 04:48:44;;;;;;;15.73;9.37;;;4.40;99.90;;;;;;5103793;28;20448;-78
2023/11/18 04:51:12;;;;;;;14.90;8.07;;;4.40;99.90;;;;;;5102806;28;20452;-78
2023/11/18 04:53:39;;;;;;;14.50;9.07;;;4.40;99.90;;;;;;5114727;28;20504;-78
2023/11/18 04:56:09;;;;;;;14.23;9.53;;;4.30;99.90;;;;;;5108914;28;20494;-78
2023/11/18 04:58:38;;;;;;;14.97;9.03;;;4.30;99.90;;;;;;5110748;28;20813;-80
2023/11/18 05:01:05;;;;;;;13.57;8.20;;;4.30;99.90;;;;;;5116124;28;20451;-79
2023/11/18 05:03:32;;;;;;;15.70;9.10;;;4.30;99.90;;;;;;5107710;28;20451;-79
2023/11/18 05:05:59;;;;;;;17.93;10.07;;;4.30;99.90;;;;;;5111676;28;20521;-79
2023/11/18 05:08:26;;;;;;;14.93;9.30;;;4.30;99.90;;;;;;5115410;28;20456;-78
2023/11/18 05:10:54;;;;;;;13.77;8.23;;;4.30;99.90;;;;;;5110642;28;20459;-80
2023/11/18 05:13:21;;;;;;;13.67;9.43;;;4.20;99.90;;;;;;5115863;28;20987;-78
2023/11/18 05:15:50;;;;;;;13.40;9.10;;;4.20;99.90;;;;;;5110702;28;20509;-79
2023/11/18 05:18:17;;;;;;;14.43;9.10;;;4.20;99.90;;;;;;5108622;28;20453;-79
2023/11/18 05:20:44;;;;;;;12.63;9.33;;;4.30;99.90;;;;;;5105394;28;20454;-79
2023/11/18 05:23:11;;;;;;;15.17;9.07;;;4.30;99.90;;;;;;5095394;28;20471;-78
2023/11/18 05:25:40;;;;;;;17.80;9.47;;;4.30;99.90;;;;;;5094817;28;20885;-77
2023/11/18 05:28:08;;;;;;;17.90;9.80;;;4.30;99.90;;;;;;5094818;28;20927;-78
2023/11/18 05:30:35;;;;;;;13.73;9.10;;;4.30;99.90;;;;;;5095069;28;20887;-79
2023/11/18 05:33:05;;;;;;;13.10;9.27;;;4.30;99.90;;;;;;5100794;28;20978;-79
2023/11/18 05:35:32;;;;;;;13.93;8.77;;;4.30;99.90;;;;;;5111333;28;20481;-79
2023/11/18 05:37:59;;;;;;;15.40;9.67;;;4.30;99.90;;;;;;5115695;28;20464;-80
2023/11/18 05:40:28;;;;;;;13.40;9.27;;;4.30;99.90;;;;;;5113848;28;20831;-78
2023/11/18 05:42:55;;;;;;;14.30;9.27;;;4.30;99.90;;;;;;5107980;28;20491;-80
2023/11/18 05:45:31;;;;;;;16.07;9.73;;;4.40;99.90;;;;;;5114719;28;20510;-78
2023/11/18 05:47:58;;;;;;;13.07;8.97;;;4.40;99.90;;;;;;5115668;28;20517;-78
2023/11/18 05:50:26;;;;;;;13.50;8.77;;;4.40;99.90;;;;;;5119722;28;20527;-78
2023/11/18 05:52:54;;;;;;;13.40;9.10;;;4.40;99.90;;;;;;5125129;28;20563;-78
2023/11/18 05:55:21;;;;;;;18.10;10.30;;;4.50;99.90;;;;;;5119614;28;20490;-79
2023/11/18 05:57:48;;;;;;;13.17;8.70;;;4.50;99.90;;;;;;5124819;28;20464;-80
2023/11/18 06:00:18;;;;;;;11.80;8.67;;;4.50;99.90;;;;;;5124890;28;20464;-78
2023/11/18 06:02:45;;;;;;;14.33;9.17;;;4.50;99.90;;;;;;5115764;28;20493;-80
2023/11/18 06:05:14;;;;;;;15.90;9.63;;;4.60;99.90;;;;;;5097144;28;20470;-80
2023/11/18 06:07:43;;;;;;;12.77;7.80;;;4.70;99.90;;;;;;5088039;28;20457;-78
2023/11/18 06:10:12;;;;;;;13.87;8.80;;;4.70;99.90;;;;;;5110623;28;20552;-80
2023/11/18 06:12:40;;;;;;;14.17;9.43;;;4.80;99.90;;;;;;5114953;28;20459;-80
2023/11/18 06:15:14;;;;;;;14.23;9.07;;;4.80;99.90;;;;;;5106954;28;20486;-79
2023/11/18 06:17:41;;;;;;;19.70;10.77;;;4.80;99.90;;;;;;5114742;28;20558;-79
2023/11/18 06:20:10;;;;;;;14.07;9.77;;;4.90;99.90;;;;;;5112730;28;20472;-79
2023/11/18 06:22:37;;;;;;;15.53;9.93;;;4.90;99.90;;;;;;5111922;28;20818;-80
2023/11/18 06:25:07;;;;;;;13.00;9.17;;;5.00;99.90;;;;;;5114914;28;20466;-80
2023/11/18 06:27:34;;;;;;;14.90;9.13;;;5.00;99.90;;;;;;5114236;28;20458;-78
2023/11/18 06:30:01;;;;;;;14.83;9.27;;;5.10;99.90;;;;;;5114108;28;20962;-79
2023/11/18 06:32:27;;;;;;;18.27;10.70;;;5.10;99.90;;;;;;5105614;28;20953;-81
2023/11/18 06:34:55;;;;;;;14.30;10.10;;;5.10;99.90;;;;;;5103225;28;20821;-80
2023/11/18 06:37:22;;;;;;;16.00;9.97;;;5.20;99.90;;;;;;5111431;28;20471;-80
2023/11/18 06:39:48;;;;;;;15.20;9.97;;;5.20;99.90;;;;;;5112566;27;20443;-80
2023/11/18 06:42:17;;;;;;;17.63;11.20;;;5.20;99.90;;;;;;5118846;28;20527;-81
2023/11/18 06:44:48;;;;;;;17.67;10.73;;;5.30;99.90;;;;;;5116423;28;20541;-81
2023/11/18 06:47:19;;;;;;;18.00;11.60;;;4.90;99.90;;;;;;5112351;28;20500;-79
2023/11/18 06:49:47;;;;;;;16.33;11.50;;;5.30;99.90;;;;;;5107186;28;20542;-78
2023/11/18 06:52:14;;;;;;;18.10;11.50;;;5.30;99.90;;;;;;5114694;28;20468;-79
2023/11/18 06:54:42;;;;;;;20.00;11.73;;;5.40;99.90;;;;;;5111551;28;20460;-80
2023/11/18 06:57:09;;;;;;;23.23;12.93;;;5.30;99.90;;;;;;5107876;28;20475;-81
2023/11/18 06:59:37;;;;;;;14.93;10.00;;;5.40;99.90;;;;;;5113601;28;20462;-79
2023/11/18 07:02:05;;;;;;;15.60;10.77;;;5.40;99.90;;;;;;5097380;28;20514;-80
2023/11/18 07:04:32;;;;;;;17.70;11.90;;;5.40;99.90;;;;;;5086565;28;20466;-80
2023/11/18 07:06:59;;;;;;;16.27;10.10;;;5.40;99.90;;;;;;5103275;28;20496;-79
2023/11/18 07:09:26;;;;;;;14.90;10.50;;;5.50;99.90;;;;;;5099095;28;20463;-79
2023/11/18 07:11:56;;;;;;;18.90;12.03;;;5.50;99.90;;;;;;5103379;28;20459;-80
2023/11/18 07:14:25;;;;;;;16.33;10.80;;;5.50;99.90;;;;;;5106107;28;20457;-79
2023/11/18 07:16:54;;;;;;;16.93;10.60;;;5.50;99.90;;;;;;5108422;28;20476;-80
2023/11/18 07:19:20;;;;;;;16.17;11.60;;;5.60;99.90;;;;;;5112412;28;20453;-79
2023/11/18 07:21:47;;;;;;;16.93;11.93;;;5.60;99.90;;;;;;5106742;28;20453;-80
2023/11/18 07:24:14;;;;;;;17.00;11.73;;;5.70;99.90;;;;;;5104601;28;20449;-80
2023/11/18 07:26:41;;;;;;;15.67;10.27;;;5.70;99.90;;;;;;5113330;28;20576;-79
2023/11/18 07:29:08;;;;;;;17.10;10.77;;;5.80;99.90;;;;;;5113519;28;20445;-81
2023/11/18 07:31:36;;;;;;;16.90;11.20;;;5.80;99.90;;;;;;5098511;28;20462;-80
2023/11/18 07:34:05;;;;;;;17.60;11.00;;;5.80;99.90;;;;;;5114141;28;20455;-80
2023/11/18 07:36:32;;;;;;;15.87;11.70;;;5.80;99.90;;;;;;5105133;28;20508;-80
2023/11/18 07:39:00;;;;;;;17.13;10.90;;;5.90;99.90;;;;;;5113572;28;20464;-80
2023/11/18 07:41:27;;;;;;;15.50;10.20;;;6.00;99.90;;;;;;5100507;28;20462;-80
2023/11/18 07:43:55;;;;;;;17.70;11.03;;;6.00;99.90;;;;;;5087327;28;20449;-80
2023/11/18 07:46:23;;;;;;;16.80;10.70;;;6.10;99.90;;;;;;5083399;28;20532;-80
2023/11/18 07:48:50;;;;;;;15.17;10.70;;;6.20;99.90;;;;;;5083051;28;20459;-79
2023/11/18 07:51:19;;;;;;;14.43;10.57;;;6.20;99.90;;;;;;5108695;28;20945;-79
2023/11/18 07:53:46;;;;;;;14.70;9.90;;;6.20;99.90;;;;;;5100213;28;20457;-79
2023/11/18 07:56:12;;;;;;;12.03;9.07;;;6.30;99.90;;;;;;5099510;28;20859;-79
2023/11/18 07:58:39;;;;;;;18.17;11.17;;;6.40;99.90;;;;;;5088102;28;20439;-79
2023/11/18 08:01:07;;;;;;;14.37;9.53;;;6.40;99.90;;;;;;5096277;28;20634;-80
2023/11/18 08:03:34;;;;;;;12.57;9.10;;;6.50;99.90;;;;;;5101866;28;20510;-80
2023/11/18 08:06:02;;;;;;;13.70;9.90;;;6.60;99.90;;;;;;5113278;28;21079;-81
2023/11/18 08:08:30;;;;;;;13.83;9.23;;;6.60;99.90;;;;;;5104071;28;20514;-81
2023/11/18 08:10:58;;;;;;;13.90;10.03;;;6.60;99.90;;;;;;5097181;28;20474;-80
2023/11/18 08:13:24;;;;;;;16.10;10.03;;;6.70;99.90;;;;;;5104468;28;20465;-80
2023/11/18 08:15:51;;;;;;;15.33;9.97;;;6.70;99.90;;;;;;5110893;28;20473;-81
2023/11/18 08:18:21;;;;;;;17.10;9.93;;;6.70;99.90;;;;;;5107139;28;20948;-81
2023/11/18 08:20:48;;;;;;;13.70;9.27;;;6.80;99.90;;;;;;5116157;28;20450;-81
2023/11/18 08:23:15;;;;;;;16.43;9.67;;;6.80;99.90;;;;;;5116576;28;20532;-80
2023/11/18 08:25:43;;;;;;;15.43;9.73;;;6.80;99.90;;;;;;5112283;28;20893;-80
2023/11/18 08:28:11;;;;;;;13.43;8.83;;;6.90;99.90;;;;;;5119453;28;20463;-81
2023/11/18 08:30:39;;;;;;;15.87;9.60;;;6.90;99.90;;;;;;5110143;28;20478;-80
2023/11/18 08:33:08;;;;;;;12.33;8.30;;;7.00;99.90;;;;;;5105028;28;20540;-82
2023/11/18 08:35:35;;;;;;;13.33;8.60;;;7.10;99.90;;;;;;5106428;28;20471;-80
2023/11/18 08:38:04;;;;;;;14.90;8.73;;;7.10;99.90;;;;;;5090485;28;20471;-79
2023/11/18 08:40:31;;;;;;;13.67;8.90;;;7.10;99.90;;;;;;5099565;28;20908;-81
2023/11/18 08:42:59;;;;;;;10.83;7.27;;;7.10;99.90;;;;;;5086035;28;20523;-81
2023/11/18 08:45:29;;;;;;;10.80;7.97;;;7.20;99.90;;;;;;5115451;28;20476;-80
2023/11/18 08:47:57;;;;;;;10.90;7.60;;;7.10;99.90;;;;;;5100037;28;20488;-80
2023/11/18 08:50:24;;;;;;;11.93;8.43;;;7.20;99.90;;;;;;5114941;28;20869;-81
2023/11/18 08:52:53;;;;;;;11.37;7.67;;;7.30;99.90;;;;;;5112388;28;20477;-81
2023/11/18 08:55:25;;;;;;;13.60;7.40;;;7.40;99.90;;;;;;5106903;28;21031;-82
2023/11/18 08:58:03;;;;;;;11.60;7.63;;;7.30;99.90;;;;;;5118653;28;20441;-81
2023/11/18 09:03:28;;;;;;;10.17;7.20;;;7.40;99.90;;;;;;5105356;28;20962;-80
2023/11/18 09:06:03;;;;;;;8.93;6.40;;;7.40;99.90;;;;;;5120137;28;20476;-81
2023/11/18 09:08:34;;;;;;;10.57;6.93;;;7.50;99.90;;;;;;5115876;28;20451;-81
2023/11/18 09:11:02;;;;;;;12.17;7.80;;;7.50;99.90;;;;;;5121849;28;20449;-79
2023/11/18 09:13:31;;;;;;;11.77;7.17;;;7.50;99.90;;;;;;5122849;28;20454;-81
2023/11/18 09:16:01;;;;;;;11.97;7.70;;;7.50;99.90;;;;;;5119404;28;20512;-81
2023/11/18 09:18:28;;;;;;;11.10;6.53;;;7.50;99.90;;;;;;5110565;28;20461;-80
2023/11/18 09:20:55;;;;;;;11.27;7.00;;;7.60;99.90;;;;;;5109448;28;20454;-81
2023/11/18 09:23:25;;;;;;;12.83;7.90;;;7.50;99.90;;;;;;5117709;28;20465;-82
2023/11/18 09:25:53;;;;;;;15.50;8.43;;;7.50;99.90;;;;;;5103352;28;20846;-80
2023/11/18 09:28:20;;;;;;;10.27;6.53;;;7.60;99.90;;;;;;5087940;28;21163;-81
2023/11/18 09:30:50;;;;;;;12.10;7.10;;;7.50;99.90;;;;;;5078605;28;20456;-81
2023/11/18 09:33:32;;;;;;;11.70;8.00;;;7.60;99.90;;;;;;5102384;28;20834;-79
2023/11/18 09:35:59;;;;;;;10.20;6.93;;;7.60;99.90;;;;;;5108689;28;21016;-80
2023/11/18 09:38:28;;;;;;;10.87;7.40;;;7.70;99.90;;;;;;5117338;28;20884;-79
2023/11/18 09:40:56;;;;;;;8.80;6.40;;;7.80;99.90;;;;;;5116864;28;20456;-81
2023/11/18 09:43:23;;;;;;;13.37;7.10;;;7.80;99.90;;;;;;5116844;28;20529;-83
2023/11/18 09:45:54;;;;;;;9.53;6.90;;;7.80;99.90;;;;;;5108458;28;20500;-80
2023/11/18 09:48:25;;;;;;;9.70;6.90;;;7.80;99.90;;;;;;5102545;28;20522;-80
2023/11/18 09:50:53;;;;;;;10.60;6.37;;;7.80;99.90;;;;;;5093394;28;20510;-81
2023/11/18 09:53:25;;;;;;;9.80;7.93;;;7.80;99.90;;;;;;5108836;28;20448;-79
2023/11/18 09:56:01;;;;;;;14.30;7.27;;;7.80;99.90;;;;;;5088103;28;20555;-79
2023/11/18 09:58:40;;;;;;;12.80;7.07;;;7.70;99.90;;;;;;5114559;28;20449;-80
2023/11/18 10:01:13;;;;;;;13.20;7.13;;;7.70;99.90;;;;;;5112030;28;20450;-79
2023/11/18 10:03:45;;;;;;;10.43;7.37;;;7.70;99.90;;;;;;5117725;28;20450;-81
2023/11/18 10:06:14;;;;;;;13.87;8.33;;;7.70;99.90;;;;;;5116297;28;20481;-80
2023/11/18 10:08:45;;;;;;;9.77;6.53;;;7.70;99.90;;;;;;5119841;28;20954;-80
2023/11/18 10:11:13;;;;;;;9.40;6.20;;;7.80;99.90;;;;;;5112840;28;20549;-80
2023/11/18 10:13:40;;;;;;;13.57;7.37;;;7.90;99.90;;;;;;5097981;28;20550;-82
2023/11/18 10:16:08;;;;;;;9.63;7.00;;;8.00;99.90;;;;;;5098677;28;20993;-79
2023/11/18 10:18:36;;;;;;;8.43;6.50;;;8.00;99.90;;;;;;5117107;28;20859;-80
2023/11/18 10:21:07;;;;;;;9.17;6.23;;;8.10;99.90;;;;;;5099981;28;20459;-79
2023/11/18 10:23:37;;;;;;;10.23;6.60;;;8.10;99.90;;;;;;5114188;28;20470;-82
2023/11/18 10:26:05;;;;;;;9.30;6.50;;;8.20;99.90;;;;;;5111238;28;20522;-79
2023/11/18 10:28:33;;;;;;;9.20;8.00;;;8.20;99.90;;;;;;5119076;28;21071;-80
2023/11/18 10:31:05;;;;;;;12.10;6.77;;;8.20;99.90;;;;;;5119014;28;20540;-80
2023/11/18 10:33:35;;;;;;;8.37;6.10;;;8.30;99.90;;;;;;5118654;28;20451;-80
2023/11/18 10:36:04;;;;;;;9.20;5.20;;;8.30;99.90;;;;;;5117754;28;20478;-79
2023/11/18 10:38:32;;;;;;;8.00;5.50;;;8.20;99.90;;;;;;5117757;28;20468;-79
2023/11/18 10:41:01;;;;;;;7.10;5.77;;;8.30;99.90;;;;;;5111038;28;20455;-79
2023/11/18 10:43:29;;;;;;;7.13;5.67;;;8.30;99.90;;;;;;5110906;28;20451;-80
2023/11/18 10:46:11;;;;;;;9.13;5.53;;;8.40;99.90;;;;;;5110811;28;20478;-80
2023/11/18 10:48:40;;;;;;;7.17;5.40;;;8.40;99.90;;;;;;5116560;28;20482;-79
2023/11/18 10:51:11;;;;;;;9.40;5.83;;;8.50;99.90;;;;;;5117161;28;20452;-79
2023/11/18 10:53:38;;;;;;;7.80;5.20;;;8.50;99.90;;;;;;5105979;28;20461;-79
2023/11/18 10:56:06;;;;;;;6.00;5.40;;;8.50;99.90;;;;;;5092223;28;20487;-80
2023/11/18 10:58:37;;;;;;;7.30;5.20;;;8.40;99.90;;;;;;5113110;28;20525;-80
2023/11/18 11:01:11;;;;;;;6.47;5.20;;;8.50;99.90;;;;;;5117157;28;20448;-80
2023/11/18 11:03:55;;;;;;;7.13;5.20;;;8.50;99.90;;;;;;5099974;28;21020;-79
2023/11/18 11:06:24;;;;;;;6.60;5.23;;;8.60;99.90;;;;;;5086283;28;20506;-80
2023/11/18 11:08:52;;;;;;;9.40;5.97;;;8.60;99.90;;;;;;5091234;28;21100;-79
2023/11/18 11:11:23;;;;;;;8.20;5.90;;;8.60;99.90;;;;;;5096043;28;20800;-81
2023/11/18 11:13:55;;;;;;;5.70;3.97;;;8.60;99.90;;;;;;5097506;28;20964;-80
2023/11/18 11:16:29;;;;;;;7.77;4.77;;;8.60;99.90;;;;;;5108916;28;20558;-81
2023/11/18 11:18:58;;;;;;;8.50;5.90;;;8.50;99.90;;;;;;5091451;28;20445;-80
2023/11/18 11:21:29;;;;;;;6.90;4.80;;;8.60;99.90;;;;;;5099127;28;20526;-81
2023/11/18 11:24:04;;;;;;;7.13;4.03;;;8.60;99.90;;;;;;5096627;28;20453;-81
2023/11/18 11:26:42;;;;;;;8.33;5.10;;;8.70;99.90;;;;;;5105302;28;20523;-81
2023/11/18 11:29:26;;;;;;;6.43;4.57;;;8.70;99.90;;;;;;5110790;28;20457;-81
2023/11/18 11:32:03;;;;;;;7.10;4.30;;;8.70;99.90;;;;;;5096922;28;20491;-80
2023/11/18 11:34:31;;;;;;;6.90;3.70;;;8.80;99.90;;;;;;5105426;28;20444;-83
2023/11/18 11:37:01;;;;;;;5.90;4.30;;;8.80;99.90;;;;;;5102658;28;20563;-80
2023/11/18 11:39:30;;;;;;;6.07;4.13;;;8.80;99.90;;;;;;5113972;28;20457;-80
2023/11/18 11:41:59;;;;;;;5.40;4.10;;;8.90;99.90;;;;;;5109286;28;20455;-80
2023/11/18 11:44:29;;;;;;;5.97;4.80;;;8.90;99.90;;;;;;5108989;28;20473;-81
2023/11/18 11:46:59;;;;;;;7.93;5.00;;;8.90;99.90;;;;;;5103362;28;20479;-81
2023/11/18 11:49:29;;;;;;;5.63;4.37;;;8.80;99.90;;;;;;5117675;28;20528;-81
2023/11/18 11:52:04;;;;;;;8.73;4.70;;;8.80;99.90;;;;;;5117719;28;20463;-80
2023/11/18 11:54:44;;;;;;;14.77;5.00;;;8.80;99.90;;;;;;5109700;28;20553;-81
2023/11/18 11:57:14;;;;;;;8.13;5.00;;;8.90;99.90;;;;;;5110443;28;20476;-81
2023/11/18 11:59:57;;;;;;;6.50;3.23;;;8.70;99.90;;;;;;5109347;28;20457;-81
2023/11/18 12:02:28;;;;;;;8.37;5.27;;;8.70;99.90;;;;;;5121813;28;20459;-80
2023/11/18 12:04:58;;;;;;;6.60;4.60;;;8.70;99.90;;;;;;5118648;28;20465;-82
2023/11/18 12:07:28;;;;;;;6.57;4.87;;;8.60;99.90;;;;;;5123913;28;20495;-83
2023/11/18 12:09:57;;;;;;;8.33;4.60;;;8.60;99.90;;;;;;5122009;28;20463;-82
2023/11/18 12:12:26;;;;;;;11.97;4.80;;;8.70;99.90;;;;;;5102087;28;20979;-82
2023/11/18 12:14:56;;;;;;;6.63;5.23;;;8.60;99.90;;;;;;5098282;28;20883;-82
2023/11/18 12:17:24;;;;;;;10.50;5.03;;;8.50;99.90;;;;;;5099861;28;20471;-82
2023/11/18 12:19:58;;;;;;;12.60;6.73;;;8.50;99.90;;;;;;5101412;28;20459;-82
2023/11/18 12:22:30;;;;;;;9.20;5.20;;;8.50;99.90;;;;;;5104681;28;20443;-82
2023/11/18 12:25:36;;;;;;;7.50;5.70;;;8.50;99.90;;;;;;5101096;28;20534;-81
2023/11/18 12:28:16;;;;;;;6.37;5.00;;;8.60;99.90;;;;;;5096301;28;20578;-80
2023/11/18 12:30:55;;;;;;;13.03;6.33;;;8.60;99.90;;;;;;5099258;28;20544;-82
2023/11/18 12:33:24;;;;;;;7.90;5.17;;;8.50;99.90;;;;;;5098663;28;20539;-82
2023/11/18 12:36:24;;;;;;;6.70;4.77;;;8.40;99.90;;;;;;5098800;28;20467;-80
2023/11/18 12:39:34;;;;;;;10.10;6.90;;;8.40;99.90;;;;;;5095881;28;20465;-78
2023/11/18 12:42:11;;;;;;;14.00;5.27;;;8.30;99.90;;;;;;5100827;28;20438;-80
2023/11/18 12:44:42;;;;;;;13.43;6.37;;;8.30;99.90;;;;;;5098923;28;20828;-79
2023/11/18 12:47:18;;;;;;;12.73;5.80;;;8.30;99.90;;;;;;5095808;28;20558;-81
2023/11/18 12:49:49;;;;;;;34.30;6.37;;;8.20;99.90;;;;;;5094884;28;20466;-82
2023/11/18 12:52:18;;;;;;;9.00;5.57;;;8.20;99.90;;;;;;5103667;28;20505;-81
2023/11/18 12:54:50;;;;;;;9.67;5.10;;;8.20;99.90;;;;;;5114822;28;20459;-83
2023/11/18 12:57:18;;;;;;;7.97;5.10;;;8.20;99.90;;;;;;5093693;28;20476;-82